Time;durP1;ratioP1;P1;durP2;ratioP2;P2;SDS_P1;SDS_P2;PMS_P1;PMS_P2;Temp;Humidity;BMP_temperature;BMP_pressure;BME280_temperature;BME280_humidity;BME280_pressure;Samples;Min_cycle;Max_cycle;Signal;HPM_P1;HPM_P2
2022/06/02 00:00:05;;;;;;;4.35;2.78;;;15.80;82.70;;;;;;4998279;28;20057;-69
2022/06/02 00:02:59;;;;;;;2.67;2.40;;;15.70;82.80;;;;;;4993922;28;20101;-68
2022/06/02 00:05:54;;;;;;;3.20;2.70;;;15.70;82.80;;;;;;5011885;28;20084;-69
2022/06/02 00:08:20;;;;;;;4.05;2.92;;;15.70;83.00;;;;;;4999906;28;20034;-69
2022/06/02 00:11:06;;;;;;;3.13;2.45;;;15.70;83.00;;;;;;4993828;28;20560;-69
2022/06/02 00:13:41;;;;;;;3.08;2.78;;;15.70;84.00;;;;;;4997145;28;20117;-68
2022/06/02 00:16:15;;;;;;;4.38;3.00;;;15.70;83.70;;;;;;5013642;28;20088;-68
2022/06/02 00:18:49;;;;;;;3.50;2.60;;;15.70;83.70;;;;;;4999520;28;20038;-69
2022/06/02 00:21:33;;;;;;;3.97;2.83;;;15.70;83.80;;;;;;5013178;28;20026;-68
2022/06/02 00:24:06;;;;;;;4.93;2.88;;;15.80;84.60;;;;;;5000167;28;20061;-69
2022/06/02 00:26:58;;;;;;;4.15;2.65;;;15.80;84.00;;;;;;5013613;28;20466;-69
2022/06/02 00:29:58;;;;;;;3.83;3.08;;;15.70;83.90;;;;;;4997417;28;20445;-69
2022/06/02 00:32:42;;;;;;;3.20;2.53;;;15.70;83.90;;;;;;4993498;28;20034;-69
2022/06/02 00:35:28;;;;;;;3.72;2.70;;;15.80;84.20;;;;;;5003781;28;20434;-70
2022/06/02 00:38:12;;;;;;;3.63;2.60;;;15.80;84.30;;;;;;4993746;28;20387;-69
2022/06/02 00:40:37;;;;;;;6.90;2.83;;;15.70;83.70;;;;;;4993055;28;20446;-70
2022/06/02 00:43:20;;;;;;;3.25;2.35;;;15.70;83.60;;;;;;5007646;28;20014;-69
2022/06/02 00:45:49;;;;;;;3.13;2.50;;;15.70;83.80;;;;;;4993471;28;20739;-69
2022/06/02 00:48:28;;;;;;;3.38;2.42;;;15.70;83.80;;;;;;4993690;28;20077;-69
2022/06/02 00:51:03;;;;;;;4.18;2.40;;;15.70;83.80;;;;;;4999917;28;20453;-69
2022/06/02 00:53:41;;;;;;;3.55;2.70;;;15.70;83.80;;;;;;4994290;28;20433;-69
2022/06/02 00:59:32;;;;;;;2.78;1.98;;;15.70;83.50;;;;;;4993352;28;20030;-69
2022/06/02 01:01:58;;;;;;;2.88;2.05;;;15.60;83.10;;;;;;4996742;28;20034;-69
2022/06/02 01:04:24;;;;;;;2.22;2.03;;;15.60;83.00;;;;;;5001901;28;20482;-69
2022/06/02 01:07:21;;;;;;;2.90;2.22;;;15.60;83.10;;;;;;4993582;28;20030;-69
2022/06/02 01:10:18;;;;;;;3.47;2.00;;;15.60;82.90;;;;;;4990341;28;20086;-69
2022/06/02 01:13:14;;;;;;;3.00;2.13;;;15.60;82.80;;;;;;4992667;28;20563;-70
2022/06/02 01:16:05;;;;;;;2.65;2.10;;;15.50;82.80;;;;;;4992633;28;20040;-69
2022/06/02 01:18:58;;;;;;;3.15;2.28;;;15.50;82.30;;;;;;4999122;28;20348;-70
2022/06/02 01:21:44;;;;;;;3.63;2.22;;;15.40;82.40;;;;;;5010738;28;20705;-69
2022/06/02 01:24:29;;;;;;;2.83;1.90;;;15.30;82.50;;;;;;5008863;28;20485;-69
2022/06/02 01:27:34;;;;;;;3.42;2.45;;;15.30;82.60;;;;;;4992885;28;20026;-69
2022/06/02 01:30:22;;;;;;;4.53;2.08;;;15.30;83.00;;;;;;4993069;28;20524;-69
2022/06/02 01:33:05;;;;;;;3.03;2.25;;;15.20;82.80;;;;;;4992996;28;20026;-70
2022/06/02 01:35:50;;;;;;;3.70;2.38;;;15.20;83.00;;;;;;5010215;28;20193;-69
2022/06/02 01:38:36;;;;;;;3.00;2.40;;;15.10;83.10;;;;;;5010334;28;20377;-68
2022/06/02 01:41:33;;;;;;;3.90;2.30;;;15.10;83.50;;;;;;4992877;28;20501;-68
2022/06/02 01:44:13;;;;;;;3.78;2.67;;;15.00;83.60;;;;;;4997456;28;20026;-69
2022/06/02 01:46:48;;;;;;;3.28;2.35;;;15.00;83.70;;;;;;5001327;28;20109;-68
2022/06/02 01:49:28;;;;;;;4.13;2.65;;;15.00;84.10;;;;;;4996708;28;20144;-68
2022/06/02 01:51:53;;;;;;;3.97;2.90;;;15.00;84.50;;;;;;4992324;28;20030;-68
2022/06/02 01:54:37;;;;;;;3.20;2.80;;;15.00;84.60;;;;;;4992551;28;20037;-69
2022/06/02 01:57:17;;;;;;;4.40;3.05;;;14.90;85.10;;;;;;4992388;28;20066;-69
2022/06/02 02:00:04;;;;;;;3.50;2.75;;;14.90;85.30;;;;;;5004187;28;20025;-69
2022/06/02 02:02:45;;;;;;;3.30;2.78;;;14.80;85.00;;;;;;5000902;28;20034;-69
2022/06/02 02:05:22;;;;;;;3.92;2.58;;;14.80;85.40;;;;;;4992481;28;20027;-69
2022/06/02 02:08:04;;;;;;;4.75;3.00;;;14.70;85.70;;;;;;5004371;28;20104;-69
2022/06/02 02:10:51;;;;;;;2.92;2.63;;;14.70;86.20;;;;;;4991975;28;20054;-68
2022/06/02 02:13:32;;;;;;;3.47;2.80;;;14.60;86.10;;;;;;4992568;28;20041;-68
2022/06/02 02:16:35;;;;;;;3.20;2.40;;;14.60;86.20;;;;;;4991669;28;20080;-68
2022/06/02 02:19:33;;;;;;;3.70;2.83;;;14.60;86.20;;;;;;4998997;28;20056;-68
2022/06/02 02:22:01;;;;;;;3.65;2.60;;;14.50;86.30;;;;;;5010513;28;20351;-69
2022/06/02 02:25:01;;;;;;;3.75;2.50;;;14.50;86.40;;;;;;5007453;28;20069;-70
2022/06/02 02:28:06;;;;;;;3.38;2.50;;;14.50;86.90;;;;;;5011153;28;20554;-69
2022/06/02 02:30:49;;;;;;;4.43;2.60;;;14.50;86.80;;;;;;5010125;28;20044;-67
2022/06/02 02:33:50;;;;;;;3.00;2.38;;;14.40;87.00;;;;;;5005154;28;20041;-68
2022/06/02 02:36:39;;;;;;;3.33;2.60;;;14.40;87.20;;;;;;5009040;28;20076;-67
2022/06/02 02:39:18;;;;;;;4.47;2.40;;;14.40;87.30;;;;;;4997429;28;20045;-67
2022/06/02 02:42:03;;;;;;;3.08;2.33;;;14.40;87.50;;;;;;4996052;28;20061;-68
2022/06/02 02:44:35;;;;;;;3.03;2.35;;;14.40;87.60;;;;;;5002053;28;20093;-68
2022/06/02 02:47:10;;;;;;;3.08;2.35;;;14.30;87.60;;;;;;4995757;28;20041;-69
2022/06/02 02:49:53;;;;;;;3.22;2.35;;;14.30;87.90;;;;;;5008440;28;20042;-69
2022/06/02 02:53:12;;;;;;;3.00;2.40;;;14.30;88.10;;;;;;5014185;28;20116;-69
2022/06/02 02:55:45;;;;;;;3.22;2.42;;;14.30;88.00;;;;;;4991972;28;20034;-69
2022/06/02 02:58:17;;;;;;;2.58;2.30;;;14.30;88.00;;;;;;4992026;28;20070;-69
2022/06/02 03:01:02;;;;;;;3.58;2.58;;;14.20;88.20;;;;;;4989614;28;20061;-69
2022/06/02 03:03:41;;;;;;;3.30;2.40;;;14.20;88.30;;;;;;5012160;28;20076;-69
2022/06/02 03:06:18;;;;;;;4.18;2.17;;;14.20;88.50;;;;;;4995116;28;20030;-69
2022/06/02 03:09:02;;;;;;;3.42;2.72;;;14.20;88.70;;;;;;5008926;28;20034;-70
2022/06/02 03:11:33;;;;;;;3.10;2.25;;;14.20;88.80;;;;;;4995207;28;20089;-69
2022/06/02 03:14:39;;;;;;;3.03;2.42;;;14.10;88.90;;;;;;4999307;28;20072;-69
2022/06/02 03:17:20;;;;;;;3.13;2.53;;;14.10;88.90;;;;;;5007455;28;20421;-70
2022/06/02 03:20:15;;;;;;;3.25;2.53;;;14.20;89.20;;;;;;5007360;28;20038;-70
2022/06/02 03:22:58;;;;;;;3.05;2.30;;;14.10;89.30;;;;;;5002725;28;20148;-70
2022/06/02 03:25:34;;;;;;;3.58;2.40;;;14.10;89.30;;;;;;5012678;28;20029;-70
2022/06/02 03:28:29;;;;;;;2.70;2.10;;;14.10;89.60;;;;;;4995213;28;20129;-69
2022/06/02 03:31:40;;;;;;;2.97;2.03;;;14.10;89.50;;;;;;5000167;28;20065;-70
2022/06/02 03:34:27;;;;;;;2.90;2.33;;;14.10;89.60;;;;;;4999191;28;20042;-69
2022/06/02 03:37:11;;;;;;;3.33;2.15;;;14.10;89.80;;;;;;4995908;28;20032;-70
2022/06/02 03:40:01;;;;;;;3.40;2.63;;;14.10;89.90;;;;;;5006043;28;20029;-70
2022/06/02 03:42:48;;;;;;;4.70;2.55;;;14.00;90.00;;;;;;5010105;28;20017;-69
2022/06/02 03:45:39;;;;;;;4.78;2.38;;;14.10;90.10;;;;;;5010673;28;20026;-69
2022/06/02 03:48:17;;;;;;;2.90;2.25;;;14.10;90.20;;;;;;4994625;28;20022;-69
2022/06/02 03:51:05;;;;;;;3.05;2.58;;;14.10;90.30;;;;;;4994614;28;20046;-69
2022/06/02 03:54:01;;;;;;;3.30;2.50;;;14.20;90.30;;;;;;4995755;28;20113;-69
2022/06/02 03:56:45;;;;;;;4.20;2.80;;;14.20;90.30;;;;;;5013876;28;20114;-69
2022/06/02 03:59:24;;;;;;;4.33;2.30;;;14.20;90.30;;;;;;4994301;28;20030;-69
2022/06/02 04:01:59;;;;;;;2.85;2.38;;;14.30;90.40;;;;;;4994945;28;20081;-69
2022/06/02 04:04:31;;;;;;;3.03;2.05;;;14.30;90.40;;;;;;4994456;28;20041;-69
2022/06/02 04:07:11;;;;;;;4.65;2.53;;;14.30;90.40;;;;;;4994685;28;20504;-69
2022/06/02 04:09:58;;;;;;;16.35;3.05;;;14.40;90.30;;;;;;5005552;28;20053;-74
2022/06/02 04:16:04;;;;;;;3.20;2.47;;;14.40;90.20;;;;;;4999652;28;20080;-73
2022/06/02 04:18:33;;;;;;;4.28;3.13;;;14.50;90.10;;;;;;5003227;28;20030;-73
2022/06/02 04:21:09;;;;;;;2.85;2.33;;;14.50;90.00;;;;;;5013645;28;20022;-73
2022/06/02 04:24:05;;;;;;;3.70;2.28;;;14.50;90.10;;;;;;5007848;28;20124;-73
2022/06/02 04:27:04;;;;;;;4.28;2.58;;;14.50;90.10;;;;;;5013868;28;20113;-74
2022/06/02 04:30:08;;;;;;;3.50;2.40;;;14.60;90.20;;;;;;4997653;28;20045;-72
2022/06/02 04:32:54;;;;;;;3.17;2.60;;;14.60;90.20;;;;;;4995445;28;20073;-72
2022/06/02 04:35:40;;;;;;;3.05;2.55;;;14.60;90.10;;;;;;5007665;28;20069;-72
2022/06/02 04:38:37;;;;;;;4.72;2.47;;;14.60;90.10;;;;;;4993698;28;20035;-72
2022/06/02 04:41:18;;;;;;;3.38;2.53;;;14.70;90.00;;;;;;5002092;28;20033;-69
2022/06/02 04:44:09;;;;;;;4.05;2.88;;;14.70;90.10;;;;;;5007669;28;20041;-67
2022/06/02 04:47:12;;;;;;;3.38;2.65;;;14.80;90.10;;;;;;5000088;28;20433;-67
2022/06/02 04:49:47;;;;;;;4.43;3.42;;;14.80;90.20;;;;;;4995693;28;20038;-67
2022/06/02 04:52:40;;;;;;;3.97;3.13;;;14.80;90.00;;;;;;5004167;28;20049;-66
2022/06/02 04:55:22;;;;;;;4.80;3.58;;;14.90;90.20;;;;;;4993256;28;20026;-66
2022/06/02 04:58:03;;;;;;;3.75;3.10;;;15.00;90.10;;;;;;5009710;28;20034;-67
2022/06/02 05:00:52;;;;;;;4.75;3.50;;;15.00;90.10;;;;;;4993438;28;20038;-67
2022/06/02 05:04:05;;;;;;;4.20;3.33;;;15.10;90.20;;;;;;5006937;28;20034;-67
2022/06/02 05:06:49;;;;;;;4.00;3.45;;;15.20;90.10;;;;;;4992417;28;20034;-67
2022/06/02 05:09:28;;;;;;;5.90;3.78;;;15.30;90.10;;;;;;5001077;28;20049;-66
2022/06/02 05:12:15;;;;;;;4.75;3.33;;;15.30;90.00;;;;;;5000498;28;20038;-67
2022/06/02 05:14:55;;;;;;;5.05;3.53;;;15.40;90.00;;;;;;4993704;28;20433;-66
2022/06/02 05:17:53;;;;;;;4.32;3.45;;;15.40;90.00;;;;;;4992977;28;20034;-66
2022/06/02 05:20:40;;;;;;;5.65;4.05;;;15.40;90.00;;;;;;4992866;28;20034;-66
2022/06/02 05:23:32;;;;;;;5.28;3.60;;;15.50;89.70;;;;;;5001056;28;20157;-68
2022/06/02 05:26:16;;;;;;;6.10;3.97;;;15.50;89.90;;;;;;4993031;28;20038;-69
2022/06/02 05:29:11;;;;;;;8.15;4.18;;;15.60;89.90;;;;;;4996521;28;20037;-68
2022/06/02 05:32:12;;;;;;;5.20;4.03;;;15.60;89.90;;;;;;4995586;28;20057;-68
2022/06/02 05:35:09;;;;;;;5.53;4.07;;;15.70;89.90;;;;;;4999885;28;20105;-69
2022/06/02 05:37:40;;;;;;;6.10;4.63;;;15.70;89.70;;;;;;4992540;28;20022;-70
2022/06/02 05:41:00;;;;;;;5.95;4.47;;;15.80;89.60;;;;;;5007678;28;20038;-69
2022/06/02 05:43:52;;;;;;;5.75;4.55;;;15.80;89.60;;;;;;4999315;28;20124;-69
2022/06/02 05:47:00;;;;;;;6.97;5.43;;;15.80;89.30;;;;;;5011071;28;20088;-68
2022/06/02 05:49:43;;;;;;;5.90;4.90;;;15.90;89.20;;;;;;5009937;28;20030;-69
2022/06/02 05:52:23;;;;;;;6.25;4.95;;;16.00;89.20;;;;;;5011847;28;20189;-68
2022/06/02 05:55:13;;;;;;;5.90;4.65;;;15.90;88.90;;;;;;5010157;28;20041;-69
2022/06/02 05:57:49;;;;;;;7.72;5.30;;;15.90;89.20;;;;;;5010943;28;20104;-69
2022/06/02 06:00:56;;;;;;;5.78;5.18;;;15.90;89.20;;;;;;5009714;28;20057;-68
2022/06/02 06:03:51;;;;;;;7.30;5.15;;;15.80;89.20;;;;;;5008848;28;20065;-69
2022/06/02 06:06:30;;;;;;;11.15;5.90;;;15.90;89.40;;;;;;5007230;28;20038;-68
2022/06/02 06:09:22;;;;;;;7.95;4.95;;;15.80;89.30;;;;;;5004549;28;20038;-69
2022/06/02 06:12:17;;;;;;;5.63;4.63;;;15.80;89.50;;;;;;4992403;28;20041;-69
2022/06/02 06:15:00;;;;;;;6.35;4.95;;;15.90;89.70;;;;;;5004520;28;20157;-69
2022/06/02 06:17:34;;;;;;;7.53;6.00;;;15.90;89.90;;;;;;5008655;28;20052;-69
2022/06/02 06:20:16;;;;;;;6.65;4.82;;;16.00;89.50;;;;;;5009906;28;20417;-69
2022/06/02 06:23:00;;;;;;;6.72;5.60;;;16.00;89.20;;;;;;5010652;28;20034;-69
2022/06/02 06:25:53;;;;;;;7.05;5.55;;;16.10;89.60;;;;;;4991941;28;20382;-69
2022/06/02 06:28:23;;;;;;;6.53;5.45;;;16.20;89.70;;;;;;4991834;28;20032;-69
2022/06/02 06:31:07;;;;;;;6.60;5.60;;;16.20;89.60;;;;;;4994887;28;20492;-67
2022/06/02 06:33:51;;;;;;;8.48;6.18;;;16.30;89.40;;;;;;4994674;28;20029;-67
2022/06/02 06:36:51;;;;;;;5.75;5.00;;;16.30;89.20;;;;;;5007849;28;20393;-68
2022/06/02 06:39:54;;;;;;;7.38;6.25;;;16.40;89.60;;;;;;5003121;28;20361;-68
2022/06/02 06:42:54;;;;;;;7.78;5.55;;;16.40;89.30;;;;;;4997771;28;20030;-66
2022/06/02 06:45:33;;;;;;;7.25;5.40;;;16.50;89.20;;;;;;5002047;28;20552;-67
2022/06/02 06:48:06;;;;;;;8.02;6.72;;;16.50;88.90;;;;;;5008110;28;20388;-66
2022/06/02 06:51:07;;;;;;;7.78;6.40;;;16.60;89.00;;;;;;4991865;28;20529;-66
2022/06/02 06:53:59;;;;;;;8.73;6.22;;;16.60;88.70;;;;;;4984278;28;20537;-66
2022/06/02 06:56:33;;;;;;;7.68;5.72;;;16.70;88.60;;;;;;4995370;28;20035;-66
2022/06/02 06:59:18;;;;;;;14.60;5.82;;;16.70;88.60;;;;;;5003200;28;20073;-67
2022/06/02 07:02:01;;;;;;;;;;;16.80;88.50;;;;;;4992836;28;20168;-68
2022/06/02 07:04:51;;;;;;;8.02;5.95;;;16.80;88.50;;;;;;5001036;28;20430;-67
2022/06/02 07:07:30;;;;;;;8.13;6.32;;;16.90;88.20;;;;;;5009558;28;20038;-67
2022/06/02 07:10:22;;;;;;;8.07;5.93;;;16.90;88.10;;;;;;5008169;28;20560;-67
2022/06/02 07:12:58;;;;;;;8.60;5.80;;;17.00;87.90;;;;;;5009108;28;20088;-67
2022/06/02 07:16:09;;;;;;;7.35;6.13;;;17.10;87.60;;;;;;5008499;28;20026;-67
2022/06/02 07:19:18;;;;;;;9.13;6.25;;;17.20;87.30;;;;;;4993585;28;20608;-67
2022/06/02 07:22:01;;;;;;;7.70;5.80;;;17.20;87.40;;;;;;4990308;28;20026;-67
2022/06/02 07:24:57;;;;;;;6.45;5.32;;;17.20;87.00;;;;;;5007615;28;20053;-67
2022/06/02 07:27:39;;;;;;;11.80;8.98;;;17.30;86.70;;;;;;5003403;28;20045;-67
2022/06/02 07:30:33;;;;;;;9.27;7.63;;;17.40;86.60;;;;;;5010876;28;20088;-67
2022/06/02 07:33:28;;;;;;;6.90;5.37;;;17.40;86.20;;;;;;5002083;28;20125;-67
2022/06/02 07:36:12;;;;;;;6.30;4.45;;;17.60;85.90;;;;;;4993697;28;20088;-67
2022/06/02 07:38:55;;;;;;;6.82;4.65;;;17.60;85.60;;;;;;5005188;28;20125;-67
2022/06/02 07:41:48;;;;;;;5.75;4.60;;;17.70;85.30;;;;;;5011198;28;20026;-66
2022/06/02 07:44:38;;;;;;;8.32;5.05;;;17.90;85.20;;;;;;5007702;28;20116;-66
2022/06/02 07:47:30;;;;;;;6.32;4.80;;;17.90;84.40;;;;;;4994859;28;20062;-67
2022/06/02 07:50:19;;;;;;;5.50;4.05;;;18.00;84.50;;;;;;5002072;28;20022;-67
2022/06/02 07:53:01;;;;;;;6.10;5.22;;;18.10;84.20;;;;;;5011790;28;20373;-67
2022/06/02 07:55:41;;;;;;;7.13;5.38;;;18.10;82.80;;;;;;5010414;28;20037;-68
2022/06/02 07:58:43;;;;;;;7.38;4.78;;;18.00;82.70;;;;;;5004970;28;20023;-66
2022/06/02 08:01:44;;;;;;;6.97;4.07;;;18.00;82.90;;;;;;5005941;28;20032;-67
2022/06/02 08:04:18;;;;;;;8.52;3.85;;;18.00;82.50;;;;;;5003356;28;20038;-66
2022/06/02 08:06:59;;;;;;;5.97;3.85;;;18.10;82.30;;;;;;5011897;28;20026;-67
2022/06/02 08:09:54;;;;;;;5.03;3.63;;;18.10;82.20;;;;;;5011427;28;20188;-67
2022/06/02 08:12:30;;;;;;;4.90;3.67;;;18.20;80.60;;;;;;4995950;28;20080;-67
2022/06/02 08:15:26;;;;;;;6.43;3.70;;;18.10;80.80;;;;;;5001056;28;20026;-67
2022/06/02 08:18:10;;;;;;;6.90;3.30;;;18.20;80.30;;;;;;5011409;28;20030;-67
2022/06/02 08:20:53;;;;;;;5.40;3.15;;;18.30;80.30;;;;;;5011482;28;20040;-67
2022/06/02 08:23:45;;;;;;;4.53;3.30;;;18.30;79.70;;;;;;5009267;28;20061;-67
2022/06/02 08:26:38;;;;;;;5.05;3.60;;;18.30;79.40;;;;;;5006496;28;20095;-67
2022/06/02 08:29:25;;;;;;;5.07;3.45;;;18.40;78.90;;;;;;5006854;28;20046;-67
2022/06/02 08:32:10;;;;;;;4.50;2.63;;;18.40;79.20;;;;;;5005968;28;20039;-66
2022/06/02 08:34:55;;;;;;;6.47;3.17;;;18.40;79.70;;;;;;4993734;28;20026;-67
2022/06/02 08:37:39;;;;;;;6.28;2.78;;;18.50;79.00;;;;;;5004631;28;20323;-66
2022/06/02 08:40:42;;;;;;;4.07;3.13;;;18.60;79.20;;;;;;4993848;28;20022;-66
2022/06/02 08:43:26;;;;;;;3.60;2.78;;;18.60;78.60;;;;;;5000450;28;20033;-67
2022/06/02 08:46:17;;;;;;;5.57;2.45;;;18.70;78.00;;;;;;5013542;28;20369;-67
2022/06/02 08:49:33;;;;;;;4.75;2.67;;;18.70;78.20;;;;;;5013260;28;20119;-66
2022/06/02 08:52:07;;;;;;;;;;;18.80;78.00;;;;;;5011863;28;20030;-67
2022/06/02 08:55:02;;;;;;;6.00;3.03;;;18.90;78.50;;;;;;5012915;28;20024;-66
2022/06/02 08:57:57;;;;;;;4.65;2.53;;;19.00;76.10;;;;;;4999169;28;20277;-67
2022/06/02 09:00:41;;;;;;;5.00;2.47;;;19.00;76.20;;;;;;4992935;28;20034;-66
2022/06/02 09:03:26;;;;;;;3.73;2.30;;;19.00;76.00;;;;;;5002864;28;20042;-67
2022/06/02 09:06:24;;;;;;;3.97;2.50;;;19.10;76.30;;;;;;4993166;28;20031;-66
2022/06/02 09:09:19;;;;;;;6.13;2.70;;;19.20;75.60;;;;;;4993177;28;20034;-66
2022/06/02 09:12:10;;;;;;;5.30;2.40;;;19.00;74.90;;;;;;4992972;28;20038;-66
2022/06/02 09:15:14;;;;;;;2.65;1.98;;;19.10;74.50;;;;;;4993410;28;20034;-66
2022/06/02 09:17:48;;;;;;;4.30;2.28;;;19.20;73.30;;;;;;4992793;28;20041;-66
2022/06/02 09:20:28;;;;;;;3.83;2.63;;;19.20;72.40;;;;;;4993076;28;20018;-67
2022/06/02 09:23:09;;;;;;;5.35;2.58;;;19.20;72.70;;;;;;4991643;28;20081;-67
2022/06/02 09:26:13;;;;;;;4.10;2.00;;;19.20;71.10;;;;;;4992837;28;20041;-67
2022/06/02 09:29:07;;;;;;;2.85;1.90;;;19.20;72.30;;;;;;4991153;28;20167;-67
2022/06/02 09:31:59;;;;;;;3.60;1.65;;;19.30;71.90;;;;;;5009240;28;20045;-67
2022/06/02 09:34:58;;;;;;;3.88;1.75;;;19.30;72.30;;;;;;5012452;28;20091;-67
2022/06/02 09:37:39;;;;;;;5.05;1.85;;;19.40;72.10;;;;;;5011973;28;20057;-67
2022/06/02 09:40:26;;;;;;;2.80;2.00;;;19.40;70.80;;;;;;5012429;28;20029;-67
2022/06/02 09:43:35;;;;;;;4.30;1.95;;;19.50;70.60;;;;;;5012274;28;20083;-67
2022/06/02 09:46:38;;;;;;;3.13;1.75;;;19.70;70.70;;;;;;4991683;28;20034;-67
2022/06/02 09:49:41;;;;;;;2.70;1.80;;;19.90;70.60;;;;;;4992246;28;20039;-67
2022/06/02 09:52:39;;;;;;;2.15;1.60;;;19.90;70.10;;;;;;4990678;28;20038;-68
2022/06/02 09:55:38;;;;;;;2.85;1.67;;;20.00;70.10;;;;;;4993137;28;20167;-67
2022/06/02 09:58:36;;;;;;;4.75;1.90;;;19.90;69.30;;;;;;5001692;28;20118;-68
2022/06/02 10:01:25;;;;;;;2.83;1.60;;;19.80;67.70;;;;;;5007811;28;20493;-67
2022/06/02 10:04:12;;;;;;;3.20;2.10;;;19.60;68.90;;;;;;4991298;28;20026;-68
2022/06/02 10:07:10;;;;;;;2.78;1.55;;;19.60;68.80;;;;;;5011076;28;20030;-67
2022/06/02 10:10:14;;;;;;;2.35;1.65;;;19.60;68.00;;;;;;5011421;28;20137;-68
2022/06/02 10:13:08;;;;;;;3.35;1.58;;;19.70;67.00;;;;;;4989348;28;20528;-68
2022/06/02 10:16:03;;;;;;;2.10;1.48;;;19.70;67.50;;;;;;5002677;28;20034;-68
2022/06/02 10:18:34;;;;;;;2.67;1.60;;;19.80;68.10;;;;;;5023035;28;20054;-68
2022/06/02 10:21:37;;;;;;;2.92;1.45;;;19.90;66.80;;;;;;5009170;28;20029;-68
2022/06/02 10:24:35;;;;;;;4.38;1.70;;;20.00;67.40;;;;;;4998069;28;20038;-67
2022/06/02 10:27:22;;;;;;;3.05;1.40;;;20.20;67.20;;;;;;5003312;28;20497;-66
2022/06/02 10:30:19;;;;;;;3.05;1.42;;;20.20;66.40;;;;;;5007216;28;20030;-67
2022/06/02 10:33:03;;;;;;;3.00;1.95;;;20.30;64.60;;;;;;4991619;28;20670;-67
2022/06/02 10:35:47;;;;;;;1.98;1.40;;;20.30;65.10;;;;;;5026139;28;20040;-67
2022/06/02 10:38:25;;;;;;;3.80;1.50;;;20.30;65.00;;;;;;5020850;28;20140;-67
2022/06/02 10:41:32;;;;;;;3.92;2.22;;;20.20;65.10;;;;;;5026639;28;20126;-68
2022/06/02 10:44:15;;;;;;;5.63;2.58;;;20.20;65.50;;;;;;5004848;28;20476;-68
2022/06/02 10:47:19;;;;;;;2.50;1.75;;;20.30;65.70;;;;;;5030918;28;20083;-67
2022/06/02 10:49:59;;;;;;;2.47;1.70;;;20.40;64.80;;;;;;4999334;28;20092;-67
2022/06/02 10:52:40;;;;;;;2.72;1.30;;;20.30;63.90;;;;;;5007208;28;20045;-67
2022/06/02 10:55:16;;;;;;;4.50;1.60;;;20.30;64.60;;;;;;5012247;28;20113;-67
2022/06/02 10:58:24;;;;;;;3.25;1.50;;;20.30;63.90;;;;;;5030604;28;20524;-67
2022/06/02 11:01:26;;;;;;;2.42;1.30;;;20.30;63.80;;;;;;4997878;28;20034;-67
2022/06/02 11:04:24;;;;;;;2.10;1.40;;;20.30;64.00;;;;;;5004323;28;20022;-67
2022/06/02 11:07:19;;;;;;;2.90;1.30;;;20.30;63.10;;;;;;4997545;28;20030;-67
2022/06/02 11:10:10;;;;;;;3.33;1.30;;;20.40;62.70;;;;;;5000425;28;20084;-67
2022/06/02 11:13:22;;;;;;;5.68;1.60;;;20.50;62.90;;;;;;5002594;28;20297;-66
2022/06/02 11:16:12;;;;;;;1.50;1.13;;;20.80;63.60;;;;;;5009540;28;20140;-65
2022/06/02 11:19:15;;;;;;;1.95;1.50;;;20.90;63.10;;;;;;5008421;28;20030;-67
2022/06/02 11:22:18;;;;;;;1.80;1.10;;;21.10;62.10;;;;;;5019260;28;20112;-66
2022/06/02 11:25:27;;;;;;;3.60;1.42;;;21.30;61.50;;;;;;4999593;28;20041;-66
2022/06/02 11:28:31;;;;;;;1.88;1.40;;;21.40;61.70;;;;;;5003715;28;20031;-66
2022/06/02 11:31:29;;;;;;;4.55;1.45;;;21.50;61.30;;;;;;5005576;28;20339;-66
2022/06/02 11:34:31;;;;;;;2.58;1.40;;;21.50;60.10;;;;;;5023917;28;20055;-64
2022/06/02 11:37:11;;;;;;;2.15;1.40;;;21.40;59.50;;;;;;5011530;28;20033;-65
2022/06/02 11:39:54;;;;;;;4.45;1.50;;;21.30;58.70;;;;;;5029361;28;20033;-65
2022/06/02 11:42:55;;;;;;;3.35;1.40;;;21.20;59.10;;;;;;4995254;28;20031;-65
2022/06/02 11:45:54;;;;;;;2.25;1.40;;;21.10;58.00;;;;;;5003686;28;20076;-66
2022/06/02 11:48:53;;;;;;;2.53;1.27;;;21.10;58.60;;;;;;5000255;28;20026;-65
2022/06/02 11:51:41;;;;;;;2.47;1.40;;;21.10;59.20;;;;;;5004201;28;20061;-66
2022/06/02 11:54:17;;;;;;;2.97;1.50;;;21.10;60.00;;;;;;5003656;28;20030;-65
2022/06/02 11:57:17;;;;;;;1.75;1.35;;;21.10;59.10;;;;;;5012491;28;20409;-65
2022/06/02 12:00:12;;;;;;;4.82;1.77;;;21.10;58.80;;;;;;5009795;28;20075;-65
2022/06/02 12:02:54;;;;;;;3.10;1.63;;;21.10;59.90;;;;;;5001249;28;20377;-64
2022/06/02 12:06:07;;;;;;;2.25;1.35;;;21.10;59.30;;;;;;5012936;28;20076;-66
2022/06/02 12:09:01;;;;;;;3.30;1.35;;;21.10;57.20;;;;;;5010478;28;20408;-64
2022/06/02 12:11:47;;;;;;;3.15;1.25;;;21.10;57.10;;;;;;5008554;28;20103;-66
2022/06/02 12:14:30;;;;;;;2.80;1.33;;;21.10;56.70;;;;;;5016266;28;20377;-64
2022/06/02 12:17:05;;;;;;;3.03;1.27;;;21.10;58.00;;;;;;5022465;28;20040;-64
2022/06/02 12:19:59;;;;;;;3.13;1.10;;;21.20;56.50;;;;;;5005321;28;20452;-65
2022/06/02 12:22:33;;;;;;;2.17;1.30;;;21.40;57.30;;;;;;5023230;28;20029;-65
2022/06/02 12:25:11;;;;;;;3.00;1.10;;;21.60;56.50;;;;;;5009335;28;20398;-65
2022/06/02 12:27:59;;;;;;;3.10;1.40;;;21.70;56.40;;;;;;4995396;28;20030;-66
2022/06/02 12:30:39;;;;;;;2.65;1.55;;;21.90;55.80;;;;;;5002000;28;20401;-65
2022/06/02 12:33:36;;;;;;;1.63;1.20;;;22.00;55.80;;;;;;5012038;28;20024;-64
2022/06/02 12:36:43;;;;;;;2.42;1.30;;;22.20;55.10;;;;;;5003647;28;20603;-66
2022/06/02 12:39:48;;;;;;;10.27;1.98;;;22.30;54.50;;;;;;4995194;28;20041;-65
2022/06/02 12:42:58;;;;;;;1.02;0.90;;;22.50;54.70;;;;;;5007329;28;20497;-66
2022/06/02 12:45:32;;;;;;;2.53;1.02;;;22.60;53.80;;;;;;4988787;28;20042;-67
2022/06/02 12:48:35;;;;;;;1.55;1.00;;;22.70;53.80;;;;;;4989708;28;20537;-66
2022/06/02 12:51:18;;;;;;;2.05;1.23;;;22.80;53.60;;;;;;5005288;28;20046;-67
2022/06/02 12:54:19;;;;;;;1.92;1.17;;;22.80;52.70;;;;;;5017509;28;20721;-67
2022/06/02 12:57:12;;;;;;;1.98;1.30;;;22.80;52.50;;;;;;4990530;28;20289;-67
2022/06/02 13:00:13;;;;;;;2.03;1.10;;;22.90;52.50;;;;;;5006487;28;20539;-67
2022/06/02 13:03:24;;;;;;;1.60;1.10;;;22.90;52.10;;;;;;4997023;28;20544;-67
2022/06/02 13:06:21;;;;;;;2.75;1.10;;;22.70;51.40;;;;;;5001504;28;20787;-66
2022/06/02 13:09:20;;;;;;;2.72;1.30;;;22.60;51.90;;;;;;5005234;28;20033;-67
2022/06/02 13:12:04;;;;;;;2.58;1.33;;;22.70;52.30;;;;;;5016513;28;20547;-67
2022/06/02 13:15:11;;;;;;;1.98;1.35;;;22.80;52.20;;;;;;5008731;28;20071;-66
2022/06/02 13:18:00;;;;;;;2.17;1.30;;;22.80;52.00;;;;;;5022428;28;20508;-67
2022/06/02 13:21:20;;;;;;;1.90;1.40;;;22.80;50.30;;;;;;5021498;28;20088;-66
2022/06/02 13:24:09;;;;;;;3.17;1.33;;;22.60;50.40;;;;;;4986909;28;20026;-66
2022/06/02 13:26:58;;;;;;;2.58;1.50;;;22.50;50.70;;;;;;5008625;28;20289;-67
2022/06/02 13:29:52;;;;;;;1.80;1.30;;;22.40;50.60;;;;;;5010268;28;20034;-70
2022/06/02 13:32:51;;;;;;;1.98;1.52;;;22.50;50.50;;;;;;5010437;28;20041;-68
2022/06/02 13:35:35;;;;;;;2.50;1.40;;;22.40;50.70;;;;;;5017038;28;20029;-67
2022/06/02 13:38:31;;;;;;;2.08;1.20;;;22.50;51.30;;;;;;5000834;28;20032;-67
2022/06/02 13:41:45;;;;;;;1.83;1.30;;;22.50;51.20;;;;;;5009214;28;20036;-67
2022/06/02 13:44:52;;;;;;;1.85;1.20;;;22.40;50.90;;;;;;4988227;28;20041;-68
2022/06/02 13:47:57;;;;;;;1.85;1.23;;;22.40;50.70;;;;;;4996017;28;20030;-68
2022/06/02 13:50:46;;;;;;;2.50;1.50;;;22.60;50.70;;;;;;5014217;28;20337;-69
2022/06/02 13:59:56;;;;;;;2.35;1.50;;;23.20;49.00;;;;;;5003318;28;20037;-67
2022/06/02 14:02:48;;;;;;;1.85;1.27;;;23.30;49.10;;;;;;5020275;28;20021;-67
2022/06/02 14:05:40;;;;;;;1.27;1.15;;;23.20;49.00;;;;;;5003565;28;20125;-67
2022/06/02 14:08:31;;;;;;;2.50;1.33;;;23.10;49.30;;;;;;4998590;28;20310;-66
2022/06/02 14:11:15;;;;;;;1.92;1.23;;;23.00;49.40;;;;;;5007895;28;20083;-67
2022/06/02 14:13:59;;;;;;;3.63;1.67;;;23.20;50.00;;;;;;5004363;28;20116;-67
2022/06/02 14:16:50;;;;;;;1.50;1.23;;;23.40;49.90;;;;;;5015016;28;20085;-68
2022/06/02 14:19:45;;;;;;;1.83;1.40;;;23.50;49.60;;;;;;5001242;28;20037;-67
2022/06/02 14:22:42;;;;;;;2.63;1.52;;;23.50;49.60;;;;;;5004073;28;20033;-67
2022/06/02 14:25:46;;;;;;;1.90;1.30;;;23.70;49.40;;;;;;5004887;28;20394;-67
2022/06/02 14:28:35;;;;;;;3.40;1.42;;;23.80;49.70;;;;;;5011506;28;20034;-67
2022/06/02 14:31:22;;;;;;;1.85;1.17;;;23.80;49.40;;;;;;5002742;28;20117;-67
2022/06/02 14:33:57;;;;;;;2.47;1.73;;;23.70;49.30;;;;;;4998962;28;20054;-67
2022/06/02 14:36:35;;;;;;;4.47;2.47;;;23.50;49.70;;;;;;5015158;28;20393;-67
2022/06/02 14:40:05;;;;;;;3.70;1.70;;;23.40;50.60;;;;;;5002082;28;20026;-68
2022/06/02 14:45:45;;;;;;;2.70;1.40;;;23.10;50.10;;;;;;5000228;28;20034;-70
2022/06/02 14:48:47;;;;;;;2.60;1.98;;;23.00;50.50;;;;;;4997512;28;20034;-67
2022/06/02 14:51:26;;;;;;;2.47;1.63;;;22.90;51.00;;;;;;5008023;28;20069;-66
2022/06/02 14:54:20;;;;;;;2.13;1.40;;;22.80;50.50;;;;;;5001094;28;20149;-67
2022/06/02 14:57:17;;;;;;;2.15;1.67;;;22.70;50.50;;;;;;5014220;28;20092;-67